createdAt,value
2023-03-29T00:02:33.478Z,101424.47
2023-03-29T00:05:22.929Z,101424.56
2023-03-29T00:08:08.656Z,101419.28
2023-03-29T00:10:56.666Z,101419.28
2023-03-29T00:13:44.021Z,101409.59
2023-03-29T00:16:29.713Z,101410.44
2023-03-29T00:19:16.131Z,101410.44
2023-03-29T00:22:02.275Z,101409.59
2023-03-29T00:24:49.050Z,101411.50
2023-03-29T00:27:35.342Z,101405.59
2023-03-29T00:30:22.506Z,101408.22
2023-03-29T00:33:08.544Z,101405.59
2023-03-29T00:35:54.791Z,101400.31
2023-03-29T00:38:41.091Z,101403.91
2023-03-29T00:41:27.220Z,101394.19
2023-03-29T00:44:27.939Z,101398.63
2023-03-29T00:47:15.001Z,101389.94
2023-03-29T00:50:01.958Z,101396.06
2023-03-29T00:52:49.150Z,101398.81
2023-03-29T00:55:35.637Z,101388.25
2023-03-29T00:58:22.419Z,101384.69
2023-03-29T01:01:10.792Z,101381.31
2023-03-29T01:03:59.175Z,101382.25
2023-03-29T01:06:46.106Z,101376.03
2023-03-29T01:09:33.000Z,101361.19
2023-03-29T01:12:20.951Z,101360.22
2023-03-29T01:15:07.588Z,101355.16
2023-03-29T01:17:55.455Z,101351.06
2023-03-29T01:20:46.630Z,101350.09
2023-03-29T01:23:41.006Z,101345.03
2023-03-29T01:26:28.810Z,101343.34
2023-03-29T01:29:16.484Z,101344.31
2023-03-29T01:32:04.123Z,101347.16
2023-03-29T01:34:51.455Z,101341.00
2023-03-29T01:37:37.860Z,101343.75
2023-03-29T01:40:24.069Z,101343.94
2023-03-29T01:43:15.762Z,101343.94
2023-03-29T01:46:03.886Z,101343.09
2023-03-29T01:48:51.029Z,101346.56
2023-03-29T01:51:37.854Z,101335.41
2023-03-29T01:54:25.012Z,101336.34
2023-03-29T01:57:11.764Z,101331.94
2023-03-29T01:59:58.289Z,101336.25
2023-03-29T02:02:45.427Z,101330.13
2023-03-29T02:05:31.473Z,101324.66
2023-03-29T02:08:18.413Z,101322.13
2023-03-29T02:11:04.893Z,101327.41
2023-03-29T02:13:51.976Z,101317.59
2023-03-29T02:16:38.827Z,101315.19
2023-03-29T02:19:25.979Z,101323.06
2023-03-29T02:22:12.490Z,101320.53
2023-03-29T02:25:00.377Z,101330.25
2023-03-29T02:27:46.258Z,101326.88
2023-03-29T02:30:34.634Z,101314.66
2023-03-29T02:33:23.835Z,101320.13
2023-03-29T02:36:13.485Z,101324.59
2023-03-29T02:38:59.648Z,101324.72
2023-03-29T02:41:46.978Z,101318.81
2023-03-29T02:44:33.080Z,101316.28
2023-03-29T02:47:20.849Z,101312.06
2023-03-29T02:50:07.438Z,101311.31
2023-03-29T02:52:56.016Z,101313.22
2023-03-29T02:55:41.954Z,101310.00
2023-03-29T02:58:28.758Z,101308.22
2023-03-29T03:01:14.885Z,101308.22
2023-03-29T03:04:00.703Z,101300.41
2023-03-29T03:06:47.005Z,101298.00
2023-03-29T03:09:34.332Z,101294.31
2023-03-29T03:12:20.229Z,101291.78
2023-03-29T03:15:06.538Z,101283.78
2023-03-29T03:17:52.487Z,101277.78
2023-03-29T03:20:40.045Z,101263.78
2023-03-29T03:23:26.097Z,101265.66
2023-03-29T03:26:13.780Z,101260.41
2023-03-29T03:29:01.142Z,101243.75
2023-03-29T03:32:05.983Z,101241.22
2023-03-29T03:35:11.746Z,101246.59
2023-03-29T03:37:59.623Z,101234.38
2023-03-29T03:40:46.792Z,101233.53
2023-03-29T03:43:34.070Z,101229.03
2023-03-29T03:46:20.543Z,101217.00
2023-03-29T03:49:06.797Z,101230.38
2023-03-29T03:51:57.758Z,101221.53
2023-03-29T03:54:43.916Z,101223.97
2023-03-29T03:57:48.813Z,101231.22
2023-03-29T04:00:39.220Z,101226.97
2023-03-29T04:03:45.839Z,101229.72
2023-03-29T04:06:34.306Z,101219.06
2023-03-29T04:09:50.494Z,101217.59
2023-03-29T04:12:48.943Z,101217.81
2023-03-29T04:15:35.686Z,101213.47
2023-03-29T04:18:27.501Z,101214.44
2023-03-29T04:21:17.874Z,101215.28
2023-03-29T04:24:05.597Z,101212.53
2023-03-29T04:26:54.700Z,101208.53
2023-03-29T04:29:44.743Z,101203.91
2023-03-29T04:32:40.407Z,101206.34
2023-03-29T04:35:29.889Z,101207.28
2023-03-29T04:38:16.704Z,101208.22
2023-03-29T04:41:04.899Z,101205.59
2023-03-29T04:44:11.492Z,101209.06
2023-03-29T04:46:57.588Z,101208.31
2023-03-29T04:50:13.753Z,101210.75
2023-03-29T04:53:04.804Z,101203.81
2023-03-29T04:55:51.185Z,101203.69
2023-03-29T04:58:46.573Z,101199.28
2023-03-29T05:01:32.757Z,101199.38
2023-03-29T05:04:19.273Z,101189.59
2023-03-29T05:07:19.993Z,101186.03
2023-03-29T05:10:09.627Z,101175.69
2023-03-29T05:12:56.266Z,101174.03
2023-03-29T05:15:42.720Z,101169.69
2023-03-29T05:18:30.217Z,101162.44
2023-03-29T05:21:16.570Z,101154.25
2023-03-29T05:24:05.908Z,101145.59
2023-03-29T05:27:11.987Z,101147.28
2023-03-29T05:29:58.706Z,101139.28
2023-03-29T05:32:52.805Z,101121.72
2023-03-29T05:35:43.595Z,101121.53
2023-03-29T05:38:32.651Z,101123.22
2023-03-29T05:41:18.797Z,101122.28
2023-03-29T05:44:26.304Z,101128.06
2023-03-29T05:47:18.602Z,101122.69
2023-03-29T05:50:04.645Z,101115.44
2023-03-29T05:52:51.502Z,101119.75
2023-03-29T05:55:37.857Z,101119.56
2023-03-29T05:58:26.341Z,101112.41
2023-03-29T06:01:14.644Z,101114.94
2023-03-29T06:04:24.399Z,101107.66
2023-03-29T06:07:24.360Z,101105.56
2023-03-29T06:10:37.075Z,101101.88
2023-03-29T06:13:44.504Z,101103.38
2023-03-29T06:16:32.364Z,101108.31
2023-03-29T06:19:18.757Z,101098.28
2023-03-29T06:22:05.686Z,101103.03
2023-03-29T06:24:53.466Z,101093.88
2023-03-29T06:27:43.702Z,101102.06
2023-03-29T06:30:29.973Z,101098.19
2023-03-29T06:33:18.639Z,101091.41
2023-03-29T06:36:16.746Z,101093.41
2023-03-29T06:39:06.408Z,101086.41
2023-03-29T06:42:20.208Z,101089.22
2023-03-29T06:45:29.419Z,101076.03
2023-03-29T06:48:19.261Z,101076.06
2023-03-29T06:51:05.966Z,101076.38
2023-03-29T06:53:51.880Z,101082.66
2023-03-29T06:56:38.167Z,101082.59
2023-03-29T06:59:28.770Z,101081.16
2023-03-29T07:02:17.726Z,101072.47
2023-03-29T07:05:11.576Z,101066.09
2023-03-29T07:08:11.754Z,101064.91
2023-03-29T07:11:13.711Z,101075.47
2023-03-29T07:14:07.932Z,101074.91
2023-03-29T07:16:53.704Z,101073.31
2023-03-29T07:19:48.827Z,101075.13
2023-03-29T07:22:57.276Z,101075.50
2023-03-29T07:25:44.733Z,101069.28
2023-03-29T07:28:30.987Z,101072.63
2023-03-29T07:31:17.347Z,101062.31
2023-03-29T07:34:10.722Z,101070.75
2023-03-29T07:36:57.616Z,101079.16
2023-03-29T07:39:44.921Z,101074.34
2023-03-29T07:42:57.402Z,101084.91
2023-03-29T07:45:44.882Z,101086.16
2023-03-29T07:48:32.273Z,101083.63
2023-03-29T07:51:22.314Z,101089.50
2023-03-29T07:54:12.816Z,101093.72
2023-03-29T07:57:10.008Z,101095.16
2023-03-29T08:00:00.276Z,101090.97
2023-03-29T08:02:59.147Z,101091.31
2023-03-29T08:05:45.383Z,101083.28
2023-03-29T08:08:34.670Z,101086.63
2023-03-29T08:11:29.669Z,101082.28
2023-03-29T08:14:23.650Z,101077.00
2023-03-29T08:17:36.095Z,101063.06
2023-03-29T08:20:23.738Z,101071.53
2023-03-29T08:23:13.490Z,101070.09
2023-03-29T08:26:02.367Z,101073.91
2023-03-29T08:28:48.531Z,101072.81
2023-03-29T08:31:38.316Z,101070.59
2023-03-29T08:34:24.748Z,101065.66
2023-03-29T08:37:31.140Z,101064.88
2023-03-29T08:40:18.414Z,101060.75
2023-03-29T08:43:28.974Z,101066.03
2023-03-29T08:46:40.528Z,101062.75
2023-03-29T08:49:38.854Z,101064.19
2023-03-29T08:52:31.119Z,101055.44
2023-03-29T08:55:19.280Z,101056.47
2023-03-29T08:58:27.145Z,101059.56
2023-03-29T09:01:13.389Z,101057.81
2023-03-29T09:04:09.962Z,101064.97
2023-03-29T09:07:09.385Z,101058.28
2023-03-29T09:10:00.321Z,101071.44
2023-03-29T09:12:59.279Z,101068.91
2023-03-29T09:15:45.332Z,101069.50
2023-03-29T09:18:45.861Z,101075.31
2023-03-29T09:21:34.663Z,101073.97
2023-03-29T09:24:29.482Z,101072.78
2023-03-29T09:27:24.984Z,101072.78
2023-03-29T09:30:21.272Z,101068.84
2023-03-29T09:33:13.635Z,101075.56
2023-03-29T09:36:26.279Z,101074.88
2023-03-29T09:39:16.215Z,101069.69
2023-03-29T09:42:04.929Z,101067.31
2023-03-29T09:44:53.010Z,101070.56
2023-03-29T09:47:45.944Z,101071.66
2023-03-29T09:50:34.086Z,101074.47
2023-03-29T09:53:22.939Z,101075.97
2023-03-29T09:56:22.746Z,101065.53
2023-03-29T09:59:11.616Z,101069.50
2023-03-29T10:02:05.322Z,101063.78
2023-03-29T10:04:55.070Z,101062.97
2023-03-29T10:07:44.653Z,101060.66
2023-03-29T10:10:31.897Z,101052.97
2023-03-29T10:13:20.921Z,101056.59
2023-03-29T10:16:09.049Z,101057.63
2023-03-29T10:18:55.657Z,101055.41
2023-03-29T10:21:42.101Z,101058.25
2023-03-29T10:24:28.247Z,101049.63
2023-03-29T10:27:14.109Z,101057.44
2023-03-29T10:30:01.344Z,101060.25
2023-03-29T10:32:48.075Z,101042.94
2023-03-29T10:35:35.100Z,101046.56
2023-03-29T10:38:21.797Z,101056.38
2023-03-29T10:41:09.963Z,101052.44
2023-03-29T10:43:56.040Z,101047.53
2023-03-29T10:46:43.993Z,101042.78
2023-03-29T10:49:30.760Z,101051.59
2023-03-29T10:52:17.267Z,101038.13
2023-03-29T10:55:03.039Z,101036.41
2023-03-29T10:57:51.872Z,101027.16
2023-03-29T11:00:38.288Z,101022.06
2023-03-29T11:03:30.472Z,101016.75
2023-03-29T11:06:17.916Z,101023.41
2023-03-29T11:09:04.463Z,101016.97
2023-03-29T11:12:14.334Z,101015.28
2023-03-29T11:15:04.580Z,101013.31
2023-03-29T11:17:54.175Z,101017.19
2023-03-29T11:20:42.457Z,101002.72
2023-03-29T11:23:32.014Z,101017.41
2023-03-29T11:26:20.517Z,101015.22
2023-03-29T11:29:07.085Z,101012.63
2023-03-29T11:31:54.062Z,101007.63
2023-03-29T11:34:41.793Z,101013.97
2023-03-29T11:37:31.897Z,101003.94
2023-03-29T11:40:24.626Z,100988.63
2023-03-29T11:43:12.137Z,100986.47
2023-03-29T11:45:59.422Z,100984.25
2023-03-29T11:48:48.346Z,100992.63
2023-03-29T11:51:36.360Z,100987.88
2023-03-29T11:54:25.832Z,100985.41
2023-03-29T11:57:13.169Z,100990.88
2023-03-29T12:00:01.010Z,100994.06
2023-03-29T12:02:48.610Z,100994.53
2023-03-29T12:05:35.929Z,100991.88
2023-03-29T12:08:23.479Z,100987.56
2023-03-29T12:11:12.089Z,100973.97
2023-03-29T12:13:58.443Z,100981.44
2023-03-29T12:16:45.224Z,100980.16
2023-03-29T12:19:32.181Z,100977.31
2023-03-29T12:22:18.042Z,100975.16
2023-03-29T12:25:06.270Z,100959.88
2023-03-29T12:27:57.602Z,100960.75
2023-03-29T12:30:45.496Z,100959.16
2023-03-29T12:33:33.897Z,100966.44
2023-03-29T12:37:00.483Z,100971.56
2023-03-29T12:40:09.968Z,100974.81
2023-03-29T12:43:20.442Z,100978.22
2023-03-29T12:46:32.895Z,100972.63
2023-03-29T12:49:21.848Z,100973.38
2023-03-29T12:52:09.450Z,100977.06
2023-03-29T12:54:56.333Z,100983.53
2023-03-29T12:57:43.345Z,100986.78
2023-03-29T13:00:33.747Z,100986.78
2023-03-29T13:03:21.554Z,100994.13
2023-03-29T13:06:09.231Z,100996.41
2023-03-29T13:08:58.711Z,101000.63
2023-03-29T13:11:44.578Z,100989.88
2023-03-29T13:14:31.179Z,100991.66
2023-03-29T13:17:22.804Z,100981.63
2023-03-29T13:20:12.317Z,100978.56
2023-03-29T13:23:01.317Z,100981.72
2023-03-29T13:25:50.483Z,100978.69
2023-03-29T13:28:38.107Z,100989.22
2023-03-29T13:31:26.967Z,100981.50
2023-03-29T13:34:17.305Z,100971.56
2023-03-29T13:37:05.252Z,100970.00
2023-03-29T13:39:52.397Z,100970.56
2023-03-29T13:42:39.971Z,100968.28
2023-03-29T13:45:26.996Z,100966.69
2023-03-29T13:48:23.329Z,100978.72
2023-03-29T13:51:21.294Z,100970.47
2023-03-29T13:54:09.004Z,100959.03
2023-03-29T13:56:59.879Z,100965.09
2023-03-29T13:59:49.057Z,100954.31
2023-03-29T14:02:38.382Z,100957.66
2023-03-29T14:05:24.672Z,100946.06
2023-03-29T14:08:15.715Z,100942.75
2023-03-29T14:11:02.112Z,100940.13
2023-03-29T14:13:48.573Z,100938.16
2023-03-29T14:16:36.779Z,100934.47
2023-03-29T14:19:25.889Z,100934.19
2023-03-29T14:22:14.287Z,100925.66
2023-03-29T14:25:04.610Z,100928.13
2023-03-29T14:27:50.835Z,100926.97
2023-03-29T14:30:36.819Z,100936.06
2023-03-29T14:33:27.217Z,100930.88
2023-03-29T14:36:14.099Z,100936.88
2023-03-29T14:39:01.961Z,100928.19
2023-03-29T14:41:49.681Z,100931.63
2023-03-29T14:44:35.921Z,100922.28
2023-03-29T14:47:24.088Z,100917.91
2023-03-29T14:50:10.705Z,100912.38
2023-03-29T14:52:57.341Z,100924.19
2023-03-29T14:55:44.177Z,100925.34
2023-03-29T14:58:32.836Z,100926.28
2023-03-29T15:01:19.300Z,100923.75
2023-03-29T15:04:06.914Z,100926.06
2023-03-29T15:06:52.854Z,100918.84
2023-03-29T15:09:39.907Z,100914.06
2023-03-29T15:12:26.018Z,100916.97
2023-03-29T15:15:13.346Z,100917.47
2023-03-29T15:17:59.273Z,100917.16
2023-03-29T15:20:45.611Z,100917.28
2023-03-29T15:23:36.028Z,100902.34
2023-03-29T15:26:23.216Z,100910.00
2023-03-29T15:29:11.733Z,100916.34
2023-03-29T15:31:59.830Z,100909.97
2023-03-29T15:34:45.952Z,100910.97
2023-03-29T15:37:31.960Z,100902.22
2023-03-29T15:40:18.438Z,100907.25
2023-03-29T15:43:04.053Z,100899.94
2023-03-29T15:45:49.992Z,100899.72
2023-03-29T15:48:38.091Z,100895.81
2023-03-29T15:51:24.322Z,100894.16
2023-03-29T15:54:10.445Z,100887.69
2023-03-29T15:56:57.439Z,100885.00
2023-03-29T15:59:43.727Z,100887.47
2023-03-29T16:02:29.508Z,100894.22
2023-03-29T16:05:17.412Z,100893.06
2023-03-29T16:08:03.139Z,100888.38
2023-03-29T16:10:49.751Z,100890.31
2023-03-29T16:13:35.988Z,100895.38
2023-03-29T16:16:22.295Z,100896.06
2023-03-29T16:19:08.571Z,100898.88
2023-03-29T16:21:55.970Z,100891.34
2023-03-29T16:24:43.803Z,100881.84
2023-03-29T16:27:29.579Z,100886.66
2023-03-29T16:30:16.001Z,100884.69
2023-03-29T16:33:06.087Z,100886.94
2023-03-29T16:35:52.187Z,100881.09
2023-03-29T16:38:39.406Z,100890.06
2023-03-29T16:41:25.678Z,100890.22
2023-03-29T16:44:13.138Z,100887.84
2023-03-29T16:46:59.218Z,100897.66
2023-03-29T16:49:48.476Z,100900.78
2023-03-29T16:52:34.813Z,100902.59
2023-03-29T16:55:22.021Z,100905.84
2023-03-29T16:58:08.489Z,100900.22
2023-03-29T17:00:54.627Z,100896.34
2023-03-29T17:03:40.968Z,100899.47
2023-03-29T17:06:27.837Z,100895.81
2023-03-29T17:09:14.238Z,100890.81
2023-03-29T17:12:01.481Z,100888.03
2023-03-29T17:14:47.488Z,100887.66
2023-03-29T17:17:33.214Z,100883.47
2023-03-29T17:20:18.996Z,100868.66
2023-03-29T17:23:04.720Z,100861.56
2023-03-29T17:25:50.616Z,100854.06
2023-03-29T17:28:37.672Z,100858.38
2023-03-29T17:31:23.558Z,100858.84
2023-03-29T17:34:09.721Z,100860.13
2023-03-29T17:36:55.830Z,100871.00
2023-03-29T17:39:42.069Z,100872.84
2023-03-29T17:42:28.136Z,100870.47
2023-03-29T17:45:15.762Z,100878.44
2023-03-29T17:48:02.815Z,100876.53
2023-03-29T17:50:49.886Z,100886.88
2023-03-29T17:53:36.321Z,100889.13
2023-03-29T17:56:22.700Z,100897.41
2023-03-29T17:59:08.582Z,100894.03
2023-03-29T18:01:57.205Z,100896.59
2023-03-29T18:04:42.873Z,100907.06
2023-03-29T18:07:28.989Z,100914.78
2023-03-29T18:10:14.807Z,100921.06
2023-03-29T18:13:00.854Z,100924.72
2023-03-29T18:15:47.433Z,100930.56
2023-03-29T18:18:34.958Z,100928.19
2023-03-29T18:21:21.012Z,100939.25
2023-03-29T18:24:07.722Z,100941.47
2023-03-29T18:26:53.532Z,100942.72
2023-03-29T18:29:39.392Z,100949.56
2023-03-29T18:32:25.405Z,100960.47
2023-03-29T18:35:12.486Z,100972.78
2023-03-29T18:37:58.672Z,100975.84
2023-03-29T18:40:44.881Z,100983.13
2023-03-29T18:43:30.916Z,100987.59
2023-03-29T18:46:16.762Z,100994.03
2023-03-29T18:49:02.618Z,101000.47
2023-03-29T18:51:49.785Z,101004.09
2023-03-29T18:54:35.668Z,101020.03
2023-03-29T18:57:21.806Z,101018.91
2023-03-29T19:00:12.258Z,101019.56
2023-03-29T19:02:58.364Z,101019.03
2023-03-29T19:05:44.901Z,101022.53
2023-03-29T19:08:32.802Z,101031.75
2023-03-29T19:11:18.600Z,101025.31
2023-03-29T19:14:04.793Z,101027.09
2023-03-29T19:16:50.669Z,101034.50
2023-03-29T19:19:37.662Z,101043.59
2023-03-29T19:22:23.821Z,101049.88
2023-03-29T19:25:12.034Z,101063.41
2023-03-29T19:27:58.655Z,101076.41
2023-03-29T19:30:44.796Z,101085.75
2023-03-29T19:33:30.778Z,101093.84
2023-03-29T19:36:17.590Z,101104.47
2023-03-29T19:39:03.764Z,101104.72
2023-03-29T19:41:50.777Z,101111.72
2023-03-29T19:44:38.211Z,101116.03
2023-03-29T19:47:24.086Z,101108.31
2023-03-29T19:50:12.233Z,101102.47
2023-03-29T19:52:58.370Z,101114.75
2023-03-29T19:55:44.964Z,101115.44
2023-03-29T19:58:32.256Z,101117.13
2023-03-29T20:01:20.930Z,101105.94
2023-03-29T20:04:06.751Z,101102.47
2023-03-29T20:06:53.017Z,101098.13
2023-03-29T20:09:38.680Z,101096.19
2023-03-29T20:12:24.876Z,101087.53
2023-03-29T20:15:12.390Z,101087.25
2023-03-29T20:18:00.200Z,101077.75
2023-03-29T20:20:46.787Z,101076.22
2023-03-29T20:23:32.478Z,101073.00
2023-03-29T20:26:18.226Z,101065.88
2023-03-29T20:29:04.305Z,101072.72
2023-03-29T20:31:51.724Z,101075.22
2023-03-29T20:34:38.114Z,101069.09
2023-03-29T20:37:25.875Z,101075.50
2023-03-29T20:40:13.326Z,101071.88
2023-03-29T20:42:59.366Z,101068.25
2023-03-29T20:45:52.628Z,101071.88
2023-03-29T20:48:53.562Z,101073.56
2023-03-29T20:51:40.258Z,101069.09
2023-03-29T20:54:26.567Z,101077.88
2023-03-29T20:57:14.116Z,101062.94
2023-03-29T21:00:00.167Z,101068.25
2023-03-29T21:02:46.475Z,101049.81
2023-03-29T21:05:34.077Z,101042.00
2023-03-29T21:08:20.142Z,101042.97
2023-03-29T21:11:08.020Z,101054.56
2023-03-29T21:13:53.816Z,101058.19
2023-03-29T21:16:41.545Z,101054.84
2023-03-29T21:19:27.720Z,101056.53
2023-03-29T21:22:15.088Z,101045.91
2023-03-29T21:25:00.941Z,101047.88
2023-03-29T21:27:46.636Z,101043.41
2023-03-29T21:30:32.473Z,101052.31
2023-03-29T21:33:18.329Z,101053.28
2023-03-29T21:36:04.815Z,101041.72
2023-03-29T21:38:52.440Z,101046.19
2023-03-29T21:41:38.526Z,101037.50
2023-03-29T21:44:24.335Z,101033.88
2023-03-29T21:47:10.120Z,101026.88
2023-03-29T21:49:55.754Z,101029.53
2023-03-29T21:52:41.773Z,101031.63
2023-03-29T21:55:28.923Z,101029.69
2023-03-29T21:58:14.780Z,101022.56
2023-03-29T22:01:12.324Z,101016.56
2023-03-29T22:04:01.273Z,101014.88
2023-03-29T22:07:02.741Z,101018.38
2023-03-29T22:10:05.691Z,101014.59
2023-03-29T22:12:54.204Z,101015.72
2023-03-29T22:15:49.724Z,101002.88
2023-03-29T22:19:01.356Z,101007.47
2023-03-29T22:21:53.374Z,101001.84
2023-03-29T22:24:43.642Z,101000.31
2023-03-29T22:27:29.650Z,101002.56
2023-03-29T22:30:22.737Z,100979.66
2023-03-29T22:33:10.086Z,100988.03
2023-03-29T22:36:00.978Z,100985.50
2023-03-29T22:38:50.409Z,100976.03
2023-03-29T22:41:38.071Z,100962.31
2023-03-29T22:44:24.302Z,100979.34
2023-03-29T22:47:11.431Z,100985.75
2023-03-29T22:49:57.276Z,100970.81
2023-03-29T22:52:43.135Z,100972.19
2023-03-29T22:55:28.862Z,100969.78
2023-03-29T22:58:14.776Z,100958.34
2023-03-29T23:01:00.561Z,100943.84
2023-03-29T23:03:48.243Z,100938.81
2023-03-29T23:06:34.016Z,100935.03
2023-03-29T23:09:19.697Z,100945.50
2023-03-29T23:12:05.910Z,100931.66
2023-03-29T23:14:53.026Z,100932.75
2023-03-29T23:17:38.990Z,100926.06
2023-03-29T23:20:26.681Z,100926.47
2023-03-29T23:23:12.466Z,100918.06
2023-03-29T23:25:58.142Z,100910.25
2023-03-29T23:28:44.680Z,100909.69
2023-03-29T23:31:30.525Z,100902.00
2023-03-29T23:34:18.094Z,100896.84
2023-03-29T23:37:05.627Z,100898.53
2023-03-29T23:39:52.039Z,100897.69
2023-03-29T23:42:38.930Z,100889.84
2023-03-29T23:45:26.637Z,100891.94
2023-03-29T23:48:13.048Z,100893.88
2023-03-29T23:50:58.862Z,100891.31
2023-03-29T23:53:46.436Z,100893.97
2023-03-29T23:56:32.496Z,100891.59
2023-03-29T23:59:18.412Z,100892.28
